Time;durP1;ratioP1;P1;durP2;ratioP2;P2;SDS_P1;SDS_P2;PMS_P1;PMS_P2;Temp;Humidity;BMP_temperature;BMP_pressure;BME280_temperature;BME280_humidity;BME280_pressure;Samples;Min_cycle;Max_cycle;Signal;HPM_P1;HPM_P2
2023/08/13 00:01:57;;;;;;;6.00;4.50;;;;;;;23.56;42.94;100890.21;108187;1283;21993;-58
2023/08/13 00:04:23;;;;;;;7.80;4.40;;;;;;;23.54;42.79;100890.64;108151;1279;21991;-73
2023/08/13 00:06:49;;;;;;;5.60;4.20;;;;;;;23.53;42.92;100890.55;108195;1273;21996;-74
2023/08/13 00:09:14;;;;;;;10.30;4.60;;;;;;;23.51;42.95;100886.38;108192;1283;22920;-74
2023/08/13 00:11:40;;;;;;;6.60;4.60;;;;;;;23.49;43.12;100886.49;108194;1283;21985;-58
2023/08/13 00:14:05;;;;;;;9.30;5.30;;;;;;;23.44;43.02;100889.44;108198;1283;22028;-74
2023/08/13 00:16:31;;;;;;;7.40;5.20;;;;;;;23.42;43.31;100892.25;108248;1283;21987;-58
2023/08/13 00:18:56;;;;;;;7.80;4.30;;;;;;;23.42;43.22;100894.55;108227;1283;23498;-59
2023/08/13 00:21:22;;;;;;;7.40;4.50;;;;;;;23.44;43.14;100895.33;108243;1277;21995;-58
2023/08/13 00:23:48;;;;;;;6.90;4.60;;;;;;;23.46;43.13;100891.10;108200;1277;21989;-73
2023/08/13 00:26:14;;;;;;;7.60;4.90;;;;;;;23.49;43.32;100891.85;108246;1283;21987;-59
2023/08/13 00:28:40;;;;;;;7.60;5.30;;;;;;;23.50;43.38;100892.17;108225;1273;21981;-58
2023/08/13 00:31:05;;;;;;;7.10;5.40;;;;;;;23.49;43.31;100887.76;108183;1276;21986;-57
2023/08/13 00:33:31;;;;;;;6.00;4.90;;;;;;;23.49;43.51;100889.67;108199;1277;21982;-73
2023/08/13 00:35:56;;;;;;;6.70;5.20;;;;;;;23.51;43.54;100890.81;108207;1276;21987;-72
2023/08/13 00:38:22;;;;;;;7.90;5.40;;;;;;;23.54;43.37;100889.98;108217;1283;21992;-59
2023/08/13 00:40:47;;;;;;;5.80;4.50;;;;;;;23.55;43.34;100883.26;108172;1280;21988;-58
2023/08/13 00:43:13;;;;;;;7.40;4.60;;;;;;;23.56;43.46;100882.15;108199;1276;22000;-73
2023/08/13 00:45:38;;;;;;;7.60;5.50;;;;;;;23.58;43.42;100881.48;108222;1276;21987;-74
2023/08/13 00:48:05;;;;;;;7.40;5.40;;;;;;;23.59;43.32;100880.52;108192;1276;21993;-73
2023/08/13 00:50:30;;;;;;;7.20;5.10;;;;;;;23.60;43.13;100880.07;108309;1279;21988;-63
2023/08/13 00:52:56;;;;;;;7.70;5.70;;;;;;;23.60;43.33;100878.99;108103;1284;21994;-58
2023/08/13 00:55:21;;;;;;;9.80;5.40;;;;;;;23.60;43.44;100877.98;108146;1277;21992;-74
2023/08/13 00:57:47;;;;;;;10.20;5.50;;;;;;;23.58;43.29;100877.68;108249;1276;22921;-59
2023/08/13 01:00:14;;;;;;;9.70;5.10;;;;;;;23.57;43.55;100878.68;108255;1284;21987;-75
2023/08/13 01:02:39;;;;;;;9.10;5.30;;;;;;;23.54;43.43;100879.20;108225;1280;21983;-59
2023/08/13 01:05:07;;;;;;;6.60;4.90;;;;;;;23.51;43.39;100879.90;108225;1280;21987;-74
2023/08/13 01:08:05;;;;;;;8.30;5.30;;;;;;;23.49;43.47;100880.24;108187;1283;21996;-74
2023/08/13 01:10:34;;;;;;;9.10;5.50;;;;;;;23.45;43.56;100881.35;108196;1280;21981;-74
2023/08/13 01:13:14;;;;;;;8.40;6.30;;;;;;;23.42;43.47;100882.41;108069;1283;171893;-60
2023/08/13 01:15:41;;;;;;;6.70;5.50;;;;;;;23.40;43.61;100880.93;108192;1284;21988;-74
2023/08/13 01:18:07;;;;;;;7.70;5.80;;;;;;;23.38;43.80;100877.27;108138;1282;22026;-73
2023/08/13 01:20:41;;;;;;;10.30;5.90;;;;;;;23.36;43.66;100880.95;108230;1279;22007;-73
2023/08/13 01:23:06;;;;;;;7.40;4.80;;;;;;;23.34;43.86;100879.84;108204;1277;21989;-73
2023/08/13 01:25:33;;;;;;;6.80;4.70;;;;;;;23.32;43.90;100880.47;108227;1283;21986;-60
2023/08/13 01:28:24;;;;;;;7.90;6.00;;;;;;;23.33;43.79;100883.46;108261;1273;21987;-58
2023/08/13 01:30:55;;;;;;;7.80;5.70;;;;;;;23.34;43.83;100883.94;108210;1283;21989;-59
2023/08/13 01:33:28;;;;;;;7.40;5.70;;;;;;;23.32;43.91;100886.02;108253;1280;22040;-58
2023/08/13 01:35:58;;;;;;;10.30;5.80;;;;;;;23.30;43.88;100885.75;108187;1283;21992;-74
2023/08/13 01:38:27;;;;;;;9.10;6.10;;;;;;;23.28;43.93;100883.74;108230;1283;21989;-73
2023/08/13 01:40:52;;;;;;;10.40;5.80;;;;;;;23.26;44.09;100881.71;108217;1280;21977;-58
2023/08/13 01:43:18;;;;;;;8.70;5.80;;;;;;;23.24;44.02;100883.10;108098;1283;23612;-58
2023/08/13 01:45:44;;;;;;;10.00;5.80;;;;;;;23.21;44.01;100885.17;108214;1283;21987;-73
2023/08/13 01:48:09;;;;;;;6.80;5.40;;;;;;;23.19;44.14;100886.20;108241;1276;23623;-64
2023/08/13 01:50:37;;;;;;;8.20;5.40;;;;;;;23.17;44.24;100884.54;108319;1283;21992;-74
2023/08/13 01:53:03;;;;;;;9.80;6.00;;;;;;;23.16;44.24;100884.91;108276;1276;21983;-75
2023/08/13 01:55:28;;;;;;;12.00;5.70;;;;;;;23.16;44.43;100883.67;108202;1279;21984;-59
2023/08/13 01:57:54;;;;;;;10.20;6.30;;;;;;;23.15;44.32;100882.83;108246;1283;21989;-73
2023/08/13 02:00:20;;;;;;;8.40;6.00;;;;;;;23.14;44.27;100882.36;108258;1279;21989;-73
2023/08/13 02:02:46;;;;;;;7.20;5.70;;;;;;;23.14;44.25;100883.44;108196;1283;21975;-74
2023/08/13 02:05:11;;;;;;;7.70;5.60;;;;;;;23.13;44.31;100882.07;108076;1281;21984;-58
2023/08/13 02:07:37;;;;;;;7.90;5.30;;;;;;;23.12;44.29;100883.54;108215;1279;21979;-74
2023/08/13 02:10:03;;;;;;;6.80;5.00;;;;;;;23.12;44.27;100885.88;108165;1283;21994;-74
2023/08/13 02:12:29;;;;;;;7.10;5.20;;;;;;;23.10;44.30;100885.44;108237;1283;21996;-73
2023/08/13 02:14:54;;;;;;;8.90;5.80;;;;;;;23.09;44.45;100885.54;108180;1276;22106;-59
2023/08/13 02:17:20;;;;;;;8.50;5.70;;;;;;;23.06;44.41;100884.60;108212;1280;21987;-74
2023/08/13 02:19:45;;;;;;;6.90;5.00;;;;;;;23.04;44.67;100886.34;108194;1283;21984;-74
2023/08/13 02:22:11;;;;;;;9.90;5.20;;;;;;;23.01;44.51;100888.82;108198;1273;22001;-59
2023/08/13 02:24:36;;;;;;;8.00;5.70;;;;;;;22.99;44.54;100889.98;108234;1273;21981;-58
2023/08/13 02:27:02;;;;;;;8.10;5.40;;;;;;;22.96;44.60;100888.00;108306;1283;21984;-75
2023/08/13 02:29:28;;;;;;;8.40;5.20;;;;;;;22.95;44.74;100890.60;108270;1277;21980;-74
2023/08/13 02:31:54;;;;;;;10.20;5.50;;;;;;;22.94;44.80;100890.31;108287;1278;22998;-59
2023/08/13 02:34:19;;;;;;;10.50;5.70;;;;;;;22.91;44.75;100888.88;108283;1277;21988;-59
2023/08/13 02:36:45;;;;;;;11.70;5.30;;;;;;;22.88;44.80;100893.31;108177;1283;21983;-76
2023/08/13 02:39:10;;;;;;;9.80;6.20;;;;;;;22.85;44.92;100895.97;108302;1279;21999;-75
2023/08/13 02:41:36;;;;;;;8.80;5.80;;;;;;;22.82;45.03;100894.53;108168;1277;21985;-75
2023/08/13 02:44:01;;;;;;;9.30;5.40;;;;;;;22.79;45.04;100891.48;108162;1283;21989;-75
2023/08/13 02:46:27;;;;;;;7.30;5.10;;;;;;;22.76;44.97;100891.78;108144;1283;21995;-75
2023/08/13 02:48:56;;;;;;;7.50;5.60;;;;;;;22.75;45.07;100898.15;108228;1283;22196;-76
2023/08/13 02:51:23;;;;;;;10.10;5.50;;;;;;;22.73;45.22;100897.00;108184;1280;23620;-59
2023/08/13 02:53:48;;;;;;;12.30;5.70;;;;;;;22.72;45.27;100898.13;108210;1283;21988;-58
2023/08/13 02:56:14;;;;;;;9.00;6.80;;;;;;;22.70;45.20;100895.52;108202;1283;22028;-74
2023/08/13 02:58:40;;;;;;;8.50;5.30;;;;;;;22.69;45.26;100895.42;108164;1280;21988;-75
2023/08/13 03:01:05;;;;;;;11.50;5.60;;;;;;;22.66;45.31;100896.66;108145;1280;21985;-59
2023/08/13 03:03:31;;;;;;;8.80;5.60;;;;;;;22.63;45.35;100897.56;108138;1279;21994;-59
2023/08/13 03:05:57;;;;;;;6.50;4.80;;;;;;;22.61;45.42;100898.04;108116;1279;21974;-74
2023/08/13 03:08:23;;;;;;;10.40;5.60;;;;;;;22.59;45.58;100896.70;108233;1279;21982;-59
2023/08/13 03:10:48;;;;;;;7.80;5.60;;;;;;;22.57;45.64;100900.01;108217;1283;21978;-58
2023/08/13 03:13:14;;;;;;;7.50;6.30;;;;;;;22.58;45.73;100902.65;108217;1284;21986;-59
2023/08/13 03:15:39;;;;;;;13.40;6.60;;;;;;;22.59;45.77;100904.36;108223;1276;21995;-59
2023/08/13 03:18:05;;;;;;;9.50;5.80;;;;;;;22.60;45.86;100902.54;108190;1281;22007;-75
2023/08/13 03:20:30;;;;;;;9.60;5.70;;;;;;;22.59;45.85;100902.21;108197;1279;22560;-76
2023/08/13 03:22:56;;;;;;;7.60;5.00;;;;;;;22.60;46.06;100900.39;108160;1283;21990;-59
2023/08/13 03:25:21;;;;;;;9.90;5.20;;;;;;;22.61;45.96;100900.67;108197;1280;21990;-76
2023/08/13 03:27:48;;;;;;;9.30;5.40;;;;;;;22.64;45.91;100900.17;108207;1276;22011;-76
2023/08/13 03:30:14;;;;;;;14.80;5.70;;;;;;;22.66;45.92;100903.11;108241;1280;21994;-75
2023/08/13 03:32:39;;;;;;;12.80;5.90;;;;;;;22.69;45.99;100902.75;108285;1277;22002;-63
2023/08/13 03:35:06;;;;;;;10.10;5.60;;;;;;;22.72;46.17;100903.84;108205;1280;21953;-59
2023/08/13 03:37:31;;;;;;;10.50;5.60;;;;;;;22.75;46.24;100907.80;108276;1281;21998;-59
2023/08/13 03:39:57;;;;;;;8.10;5.10;;;;;;;22.77;46.41;100911.27;108266;1273;21989;-59
2023/08/13 03:42:23;;;;;;;6.90;4.30;;;;;;;22.79;46.36;100910.06;108202;1280;21994;-59
2023/08/13 03:44:48;;;;;;;6.80;4.90;;;;;;;22.84;46.30;100913.05;108205;1273;21985;-75
2023/08/13 03:47:14;;;;;;;12.10;5.00;;;;;;;22.89;46.25;100914.90;108241;1283;21982;-59
2023/08/13 03:49:39;;;;;;;7.60;5.70;;;;;;;22.95;46.44;100917.45;108186;1284;21986;-58
2023/08/13 03:52:05;;;;;;;8.40;5.30;;;;;;;23.01;46.54;100917.29;108242;1276;21998;-59
2023/08/13 03:54:31;;;;;;;11.70;5.50;;;;;;;23.06;46.71;100916.27;108228;1279;22022;-76
2023/08/13 03:56:57;;;;;;;8.70;5.40;;;;;;;23.11;46.72;100916.71;108218;1284;22936;-59
2023/08/13 03:59:22;;;;;;;8.00;5.10;;;;;;;23.18;46.59;100916.53;108193;1278;22024;-76
2023/08/13 04:01:48;;;;;;;6.60;4.90;;;;;;;23.24;46.70;100912.61;108162;1281;21984;-75
2023/08/13 04:04:13;;;;;;;9.80;4.90;;;;;;;23.32;46.89;100910.23;108267;1276;22167;-59
2023/08/13 04:06:39;;;;;;;7.80;5.20;;;;;;;23.39;46.97;100912.67;108208;1273;21986;-76
2023/08/13 04:09:05;;;;;;;8.70;5.40;;;;;;;23.47;46.86;100916.15;108224;1283;22022;-59
2023/08/13 04:11:31;;;;;;;8.10;5.60;;;;;;;23.54;47.05;100915.55;108225;1282;21987;-58
2023/08/13 04:13:56;;;;;;;6.00;5.40;;;;;;;23.62;47.25;100917.59;108230;1281;22025;-59
2023/08/13 04:16:22;;;;;;;7.10;5.20;;;;;;;23.72;47.12;100922.55;108250;1280;22019;-69
2023/08/13 04:18:50;;;;;;;10.80;5.30;;;;;;;23.82;47.31;100926.42;108199;1279;21984;-59
2023/08/13 04:21:16;;;;;;;9.30;5.60;;;;;;;23.91;47.36;100924.65;108162;1280;22024;-59
2023/08/13 04:23:41;;;;;;;9.10;5.50;;;;;;;24.01;47.20;100925.34;108244;1284;22016;-59
2023/08/13 04:26:07;;;;;;;7.70;5.20;;;;;;;24.13;47.11;100925.91;108215;1273;21984;-59
2023/08/13 04:28:33;;;;;;;6.40;5.40;;;;;;;24.23;46.97;100924.56;108193;1284;21994;-76
2023/08/13 04:30:59;;;;;;;9.00;5.70;;;;;;;24.33;46.95;100928.63;108226;1283;22004;-73
2023/08/13 04:33:25;;;;;;;13.50;5.10;;;;;;;24.41;46.98;100929.75;108199;1283;22029;-59
2023/08/13 04:35:54;;;;;;;12.90;5.60;;;;;;;24.51;47.05;100931.30;108208;1276;21991;-59
2023/08/13 04:38:23;;;;;;;8.70;5.30;;;;;;;24.60;46.94;100933.77;108250;1283;22029;-59
2023/08/13 04:40:49;;;;;;;9.10;5.70;;;;;;;24.71;47.01;100935.48;108225;1283;22024;-74
2023/08/13 04:43:15;;;;;;;11.60;6.50;;;;;;;24.82;46.87;100935.35;108251;1280;21989;-71
2023/08/13 04:45:47;;;;;;;12.10;5.40;;;;;;;24.95;46.62;100937.56;108271;1273;21986;-73
2023/08/13 04:48:45;;;;;;;11.30;5.90;;;;;;;25.18;46.58;100939.31;108226;1273;22080;-59
2023/08/13 04:51:11;;;;;;;14.60;5.50;;;;;;;25.38;46.22;100939.64;108174;1283;23056;-74
2023/08/13 04:53:37;;;;;;;9.60;5.50;;;;;;;25.49;46.07;100943.46;108193;1281;21996;-59
2023/08/13 04:56:03;;;;;;;10.40;4.80;;;;;;;25.57;46.02;100940.39;108234;1281;22003;-75
2023/08/13 04:58:29;;;;;;;13.40;5.30;;;;;;;25.68;46.05;100941.28;108208;1283;21974;-74
2023/08/13 05:00:55;;;;;;;10.70;4.90;;;;;;;25.79;45.91;100944.33;108252;1276;21991;-59
2023/08/13 05:03:20;;;;;;;12.50;5.10;;;;;;;25.88;45.55;100943.73;108235;1277;21994;-60
2023/08/13 05:05:46;;;;;;;9.80;5.80;;;;;;;25.95;45.52;100947.18;108236;1283;22009;-59
2023/08/13 05:08:11;;;;;;;12.30;5.50;;;;;;;26.04;45.42;100949.86;108242;1279;22024;-60
2023/08/13 05:10:37;;;;;;;8.60;4.90;;;;;;;26.13;45.20;100951.20;108229;1282;22023;-75
2023/08/13 05:13:03;;;;;;;7.50;4.70;;;;;;;26.23;45.24;100952.52;108208;1283;23599;-77
2023/08/13 05:15:29;;;;;;;8.20;6.00;;;;;;;26.32;44.89;100956.39;108214;1283;22024;-76
2023/08/13 05:17:55;;;;;;;7.90;5.90;;;;;;;26.38;44.81;100957.41;108194;1281;22049;-73
2023/08/13 05:20:20;;;;;;;7.80;5.70;;;;;;;26.47;44.68;100958.26;108216;1277;23625;-59
2023/08/13 05:22:46;;;;;;;9.00;6.10;;;;;;;26.57;44.62;100959.55;108187;1274;22450;-74
2023/08/13 05:25:12;;;;;;;6.90;5.40;;;;;;;26.71;44.56;100962.86;108224;1283;21999;-59
2023/08/13 05:27:38;;;;;;;7.30;6.10;;;;;;;26.84;44.44;100961.77;108220;1283;21993;-76
2023/08/13 05:30:05;;;;;;;7.40;5.90;;;;;;;26.95;44.20;100962.80;108220;1279;24334;-59
2023/08/13 05:32:30;;;;;;;8.50;5.60;;;;;;;27.08;44.20;100964.21;108282;1280;21989;-74
2023/08/13 05:34:56;;;;;;;8.60;5.80;;;;;;;27.21;43.96;100960.36;108254;1283;23623;-74
2023/08/13 05:37:22;;;;;;;8.50;5.40;;;;;;;27.40;43.86;100965.33;108235;1283;21989;-75
2023/08/13 05:39:47;;;;;;;7.80;5.00;;;;;;;27.61;44.01;100962.67;108256;1280;21989;-70
2023/08/13 05:42:13;;;;;;;8.10;5.40;;;;;;;27.85;43.94;100963.75;108245;1283;21994;-59
2023/08/13 05:44:38;;;;;;;9.20;5.30;;;;;;;28.10;43.49;100963.63;108205;1276;21984;-59
2023/08/13 05:47:04;;;;;;;7.50;4.90;;;;;;;28.28;43.34;100964.59;108237;1277;22004;-60
2023/08/13 05:49:30;;;;;;;10.40;5.20;;;;;;;28.48;43.26;100964.02;108191;1283;21987;-75
2023/08/13 05:51:55;;;;;;;7.40;5.00;;;;;;;28.68;43.08;100966.98;108191;1284;21974;-60
2023/08/13 05:54:21;;;;;;;7.60;5.10;;;;;;;28.89;42.96;100968.38;108278;1280;23893;-60
2023/08/13 05:56:47;;;;;;;9.70;5.70;;;;;;;29.10;42.64;100968.33;108186;1281;21989;-75
2023/08/13 05:59:13;;;;;;;5.60;4.10;;;;;;;29.26;42.42;100968.23;108233;1276;21987;-77
2023/08/13 06:01:38;;;;;;;7.60;4.80;;;;;;;29.46;42.28;100969.34;108238;1280;21988;-77
2023/08/13 06:04:05;;;;;;;7.60;4.60;;;;;;;29.65;42.26;100972.85;108200;1283;21985;-78
2023/08/13 06:06:30;;;;;;;7.80;4.70;;;;;;;29.64;42.24;100973.66;108262;1283;22195;-76
2023/08/13 06:08:56;;;;;;;8.30;4.80;;;;;;;29.70;42.27;100972.08;108251;1283;23749;-77
2023/08/13 06:11:21;;;;;;;7.30;4.10;;;;;;;29.84;41.69;100972.54;108247;1284;23704;-60
2023/08/13 06:13:47;;;;;;;6.40;4.00;;;;;;;30.18;41.40;100971.30;108137;1284;22026;-77
2023/08/13 06:16:14;;;;;;;9.90;4.20;;;;;;;30.48;41.05;100972.89;108275;1277;21987;-60
2023/08/13 06:18:39;;;;;;;5.30;4.10;;;;;;;30.72;40.58;100973.91;108256;1280;22003;-60
2023/08/13 06:21:05;;;;;;;6.20;4.10;;;;;;;30.88;40.12;100975.04;108213;1277;22453;-77
2023/08/13 06:23:30;;;;;;;8.70;3.90;;;;;;;31.03;40.19;100973.89;108270;1280;22320;-75
2023/08/13 06:25:56;;;;;;;4.90;3.60;;;;;;;31.25;39.98;100975.02;108216;1278;21991;-77
2023/08/13 06:28:22;;;;;;;7.90;3.90;;;;;;;31.46;39.48;100977.29;108239;1274;23715;-60
2023/08/13 06:30:47;;;;;;;6.60;4.30;;;;;;;31.61;39.24;100977.89;108226;1280;21987;-77
2023/08/13 06:33:13;;;;;;;5.30;3.80;;;;;;;31.76;38.97;100975.51;108272;1280;22460;-60
2023/08/13 06:35:46;;;;;;;5.50;4.00;;;;;;;31.92;38.65;100978.70;108223;1283;21989;-76
2023/08/13 06:38:15;;;;;;;6.60;3.80;;;;;;;32.07;38.44;100976.23;108117;1284;22935;-76
2023/08/13 06:40:41;;;;;;;7.00;3.50;;;;;;;32.15;38.37;100974.91;108239;1283;23071;-60
2023/08/13 06:43:07;;;;;;;4.80;3.90;;;;;;;32.29;38.25;100977.22;108213;1284;22179;-75
2023/08/13 06:45:33;;;;;;;4.60;3.50;;;;;;;32.48;37.91;100972.52;108209;1277;22083;-75
2023/08/13 06:47:58;;;;;;;6.80;4.10;;;;;;;32.67;37.48;100971.13;108209;1283;23644;-60
2023/08/13 06:50:25;;;;;;;3.70;2.90;;;;;;;32.86;37.63;100975.45;108199;1280;21991;-74
2023/08/13 06:52:51;;;;;;;6.20;3.80;;;;;;;33.09;37.21;100981.23;108230;1278;21995;-60
2023/08/13 06:55:17;;;;;;;5.80;3.60;;;;;;;33.21;36.87;100978.08;108238;1280;22043;-60
2023/08/13 06:57:42;;;;;;;5.00;3.70;;;;;;;33.36;37.00;100977.13;108224;1274;21991;-60
2023/08/13 07:00:10;;;;;;;7.70;3.60;;;;;;;33.55;36.78;100975.98;108196;1283;21997;-59
2023/08/13 07:02:37;;;;;;;6.80;3.90;;;;;;;33.79;36.63;100978.31;108292;1277;22010;-60
2023/08/13 07:05:04;;;;;;;7.70;4.50;;;;;;;33.88;36.66;100980.10;108234;1273;21988;-75
2023/08/13 07:07:30;;;;;;;7.00;3.70;;;;;;;34.04;36.57;100984.52;108128;1283;21992;-76
2023/08/13 07:09:55;;;;;;;5.90;3.60;;;;;;;34.43;35.85;100985.56;108159;1283;22025;-77
2023/08/13 07:12:21;;;;;;;6.80;3.80;;;;;;;34.64;35.27;100988.30;108218;1283;24349;-76
2023/08/13 07:14:47;;;;;;;7.80;3.80;;;;;;;34.76;35.05;100985.61;108184;1273;21987;-76
2023/08/13 07:17:12;;;;;;;5.10;3.20;;;;;;;34.83;34.83;100987.77;108249;1277;21986;-77
2023/08/13 07:19:38;;;;;;;7.40;3.90;;;;;;;34.88;34.46;100983.29;108189;1279;23623;-61
2023/08/13 07:22:04;;;;;;;6.90;4.10;;;;;;;35.05;35.01;100985.48;108220;1278;21960;-62
2023/08/13 07:24:29;;;;;;;14.40;7.50;;;;;;;35.34;34.78;100981.81;108182;1283;23056;-77
2023/08/13 07:26:55;;;;;;;6.70;4.90;;;;;;;35.57;34.25;100980.88;108216;1283;21989;-59
2023/08/13 07:29:20;;;;;;;7.30;5.00;;;;;;;35.74;33.66;100978.74;108261;1279;22018;-77
2023/08/13 07:31:46;;;;;;;6.00;3.80;;;;;;;36.02;34.00;100980.14;108219;1283;23609;-77
2023/08/13 07:34:12;;;;;;;9.90;4.10;;;;;;;36.29;34.09;100982.72;108238;1275;23613;-78
2023/08/13 07:36:37;;;;;;;29.30;4.70;;;;;;;36.53;34.02;100986.48;108223;1278;23710;-64
2023/08/13 07:39:03;;;;;;;60.40;7.00;;;;;;;36.70;33.71;100982.90;108212;1282;22004;-70
2023/08/13 07:41:29;;;;;;;28.20;5.40;;;;;;;36.95;33.44;100981.17;108204;1277;21995;-70
2023/08/13 07:43:54;;;;;;;5.30;3.40;;;;;;;37.29;32.95;100979.04;108216;1283;21996;-77
2023/08/13 07:46:20;;;;;;;7.50;3.70;;;;;;;37.46;32.31;100983.11;108090;1280;23608;-61
2023/08/13 07:48:46;;;;;;;6.90;3.50;;;;;;;37.47;32.00;100986.67;108250;1280;22452;-76
2023/08/13 07:51:11;;;;;;;4.00;3.20;;;;;;;37.51;31.97;100982.73;108286;1274;21996;-77
2023/08/13 07:53:37;;;;;;;6.80;3.90;;;;;;;37.58;31.04;100984.68;108219;1283;21986;-77
2023/08/13 07:56:03;;;;;;;4.40;3.20;;;;;;;37.51;31.39;100984.02;108214;1277;22027;-61
2023/08/13 07:58:28;;;;;;;7.60;3.20;;;;;;;37.47;31.15;100982.81;108229;1274;22026;-77
2023/08/13 08:00:54;;;;;;;8.60;3.70;;;;;;;37.49;30.90;100978.73;108211;1283;21984;-77
2023/08/13 08:03:19;;;;;;;8.00;3.80;;;;;;;37.58;30.99;100977.02;108231;1283;21986;-77
2023/08/13 08:05:49;;;;;;;5.50;3.20;;;;;;;37.67;30.87;100977.51;108192;1278;23603;-60
2023/08/13 08:08:15;;;;;;;4.60;3.40;;;;;;;37.88;31.07;100976.10;108183;1282;22000;-77
2023/08/13 08:10:41;;;;;;;5.40;3.30;;;;;;;38.13;30.73;100977.80;108145;1284;22026;-76
2023/08/13 08:13:06;;;;;;;5.20;2.90;;;;;;;38.31;30.68;100975.79;108131;1283;21987;-77
2023/08/13 08:15:33;;;;;;;5.30;2.90;;;;;;;38.57;30.49;100972.80;108173;1284;21994;-61
2023/08/13 08:17:58;;;;;;;5.00;3.10;;;;;;;38.86;29.77;100972.91;108171;1283;21986;-60
2023/08/13 08:20:24;;;;;;;4.60;2.80;;;;;;;39.04;29.43;100969.46;108239;1278;21990;-77
2023/08/13 08:22:50;;;;;;;3.60;2.70;;;;;;;38.89;29.40;100965.59;108236;1281;21983;-78
2023/08/13 08:25:15;;;;;;;6.30;3.00;;;;;;;38.81;29.08;100969.70;108252;1278;23599;-75
2023/08/13 08:27:41;;;;;;;4.60;3.00;;;;;;;38.64;28.43;100965.58;108313;1283;21983;-75
2023/08/13 08:30:07;;;;;;;8.30;3.10;;;;;;;38.34;28.78;100960.36;108185;1283;23667;-75
2023/08/13 08:32:35;;;;;;;9.90;3.00;;;;;;;38.27;28.83;100961.95;108243;1280;23557;-60
2023/08/13 08:35:00;;;;;;;5.10;2.90;;;;;;;38.44;28.89;100957.73;108198;1283;23628;-76
2023/08/13 08:37:26;;;;;;;6.50;2.70;;;;;;;38.67;29.03;100954.36;108171;1284;23643;-59
2023/08/13 08:39:52;;;;;;;3.70;2.60;;;;;;;38.77;28.64;100951.45;108152;1278;21987;-77
2023/08/13 08:42:17;;;;;;;5.30;2.80;;;;;;;38.95;29.00;100945.48;108087;1283;21998;-75
2023/08/13 08:44:43;;;;;;;6.30;3.00;;;;;;;39.04;28.65;100942.84;108070;1284;22748;-74
2023/08/13 08:47:08;;;;;;;4.70;3.00;;;;;;;39.09;28.68;100941.48;108137;1276;23851;-59
2023/08/13 08:49:35;;;;;;;3.90;2.90;;;;;;;39.21;28.52;100936.80;108156;1280;21996;-59
2023/08/13 08:52:00;;;;;;;3.60;2.70;;;;;;;39.42;28.25;100934.27;108140;1283;21990;-59
2023/08/13 08:54:26;;;;;;;3.60;2.70;;;;;;;39.64;28.26;100935.76;108156;1284;21992;-77
2023/08/13 08:56:52;;;;;;;4.50;2.60;;;;;;;39.84;27.31;100935.52;108140;1278;23711;-60
2023/08/13 08:59:17;;;;;;;3.60;2.50;;;;;;;39.91;27.12;100936.51;108152;1279;21988;-61
2023/08/13 09:01:43;;;;;;;6.90;3.00;;;;;;;39.79;26.93;100933.02;108137;1282;23605;-59
2023/08/13 09:04:08;;;;;;;4.20;2.70;;;;;;;39.57;26.62;100932.01;108137;1276;21991;-60
2023/08/13 09:06:53;;;;;;;4.10;2.50;;;;;;;39.26;26.71;100936.64;108204;1282;21982;-76
2023/08/13 09:09:18;;;;;;;3.60;2.50;;;;;;;38.74;26.54;100934.81;108170;1284;22840;-75
2023/08/13 09:11:45;;;;;;;4.20;2.70;;;;;;;38.18;26.83;100939.98;108203;1284;23637;-75
2023/08/13 09:14:10;;;;;;;4.00;2.50;;;;;;;37.92;27.33;100940.30;108216;1284;23775;-60
2023/08/13 09:16:36;;;;;;;5.70;2.80;;;;;;;37.80;27.38;100940.46;108237;1284;21984;-60
2023/08/13 09:19:02;;;;;;;9.70;2.80;;;;;;;37.74;27.77;100939.31;108181;1284;21977;-60
2023/08/13 09:21:29;;;;;;;6.10;2.70;;;;;;;37.80;27.89;100935.13;108238;1281;21991;-74
2023/08/13 09:23:56;;;;;;;4.70;2.60;;;;;;;37.94;27.79;100934.97;108139;1281;22690;-75
2023/08/13 09:26:25;;;;;;;4.20;2.70;;;;;;;38.14;27.77;100935.11;108116;1283;22049;-73
2023/08/13 09:28:50;;;;;;;4.60;2.20;;;;;;;38.40;27.71;100930.69;108089;1280;21991;-75
2023/08/13 09:31:16;;;;;;;4.90;2.30;;;;;;;38.64;27.34;100934.56;108175;1284;23791;-60
2023/08/13 09:33:42;;;;;;;3.60;2.40;;;;;;;38.76;27.39;100933.84;108164;1284;21986;-59
2023/08/13 09:36:08;;;;;;;5.50;2.60;;;;;;;38.74;26.92;100927.42;108143;1281;21989;-63
2023/08/13 09:38:35;;;;;;;5.00;2.50;;;;;;;38.61;26.81;100926.84;108154;1284;21984;-74
2023/08/13 09:41:00;;;;;;;3.40;2.80;;;;;;;38.41;26.52;100925.42;108091;1279;22000;-59
2023/08/13 09:43:26;;;;;;;4.00;2.50;;;;;;;38.49;27.07;100924.30;108192;1284;21993;-75
2023/08/13 09:45:52;;;;;;;4.10;2.50;;;;;;;38.90;27.09;100924.54;108142;1284;23001;-74
2023/08/13 09:48:21;;;;;;;3.60;2.60;;;;;;;39.46;27.02;100920.41;108054;1284;22029;-74
2023/08/13 09:50:48;;;;;;;3.50;2.80;;;;;;;39.91;26.46;100916.80;108151;1284;22000;-59
2023/08/13 09:53:14;;;;;;;3.30;2.30;;;;;;;40.27;26.47;100915.62;108143;1278;22880;-74
2023/08/13 09:55:44;;;;;;;4.10;2.60;;;;;;;40.59;25.84;100911.05;108140;1284;22061;-59
2023/08/13 09:58:10;;;;;;;4.30;2.70;;;;;;;40.85;24.85;100910.35;108211;1284;21993;-75
2023/08/13 10:00:36;;;;;;;2.90;2.30;;;;;;;40.88;23.92;100907.59;108079;1280;22067;-59
2023/08/13 10:03:02;;;;;;;3.90;2.50;;;;;;;41.01;23.89;100908.41;108179;1283;21985;-59
2023/08/13 10:05:31;;;;;;;5.90;2.40;;;;;;;41.18;24.14;100905.62;108112;1283;22792;-73
2023/08/13 10:07:57;;;;;;;3.50;2.50;;;;;;;41.46;24.07;100905.48;108133;1283;21987;-59
2023/08/13 10:10:23;;;;;;;4.90;2.40;;;;;;;41.77;23.77;100905.92;108099;1281;21989;-59
2023/08/13 10:12:49;;;;;;;2.80;2.10;;;;;;;41.79;23.51;100906.48;108107;1284;21986;-59
2023/08/13 10:15:14;;;;;;;3.80;2.30;;;;;;;41.62;23.29;100907.55;108191;1284;21987;-73
2023/08/13 10:17:43;;;;;;;4.70;2.70;;;;;;;41.20;22.94;100909.18;108167;1281;22189;-73
2023/08/13 10:20:08;;;;;;;4.20;2.40;;;;;;;40.68;22.88;100910.23;108284;1277;22017;-72
2023/08/13 10:22:36;;;;;;;4.30;2.70;;;;;;;40.20;23.66;100911.95;108235;1280;22959;-72
2023/08/13 10:25:02;;;;;;;9.80;3.00;;;;;;;39.84;23.70;100909.44;108253;1280;23644;-74
2023/08/13 10:27:28;;;;;;;6.00;2.60;;;;;;;39.44;23.61;100906.05;108169;1283;21997;-59
2023/08/13 10:30:10;;;;;;;5.90;2.60;;;;;;;38.81;23.89;100907.50;108235;1282;21979;-72
2023/08/13 10:32:47;;;;;;;3.60;2.50;;;;;;;38.41;24.01;100909.93;108234;1279;22179;-73
2023/08/13 10:35:37;;;;;;;4.10;2.40;;;;;;;38.03;24.22;100916.54;108142;1283;22075;-72
2023/08/13 10:38:03;;;;;;;5.20;2.60;;;;;;;37.62;24.34;100920.50;108190;1284;23958;-74
2023/08/13 10:40:29;;;;;;;3.80;2.50;;;;;;;37.31;24.65;100915.34;108250;1283;21986;-60
2023/08/13 10:42:55;;;;;;;4.90;2.60;;;;;;;37.23;24.86;100914.23;108250;1284;22114;-74
2023/08/13 10:45:24;;;;;;;3.20;2.40;;;;;;;37.32;24.30;100917.45;108037;1284;22014;-61
2023/08/13 10:47:51;;;;;;;4.90;2.60;;;;;;;37.38;24.50;100916.76;108228;1284;22045;-60
2023/08/13 10:50:19;;;;;;;4.30;2.60;;;;;;;37.50;24.43;100915.17;108228;1284;22217;-59
2023/08/13 10:52:55;;;;;;;4.50;2.70;;;;;;;37.62;24.77;100914.46;108236;1284;22136;-59
2023/08/13 10:55:22;;;;;;;3.90;2.60;;;;;;;37.82;24.82;100908.17;108097;1282;21994;-74
2023/08/13 10:57:50;;;;;;;4.20;2.40;;;;;;;38.00;24.45;100905.17;108220;1284;23620;-75
2023/08/13 11:00:15;;;;;;;5.40;2.60;;;;;;;38.06;24.42;100907.55;108276;1275;21993;-60
2023/08/13 11:02:43;;;;;;;5.00;2.60;;;;;;;38.17;24.46;100907.16;108150;1283;22201;-60
2023/08/13 11:05:09;;;;;;;3.80;2.50;;;;;;;38.33;24.30;100906.60;108203;1283;21992;-59
2023/08/13 11:07:35;;;;;;;5.90;2.50;;;;;;;38.48;23.84;100901.16;108051;1284;21991;-73
2023/08/13 11:10:03;;;;;;;4.20;2.60;;;;;;;38.65;23.82;100895.65;108206;1284;23661;-59
2023/08/13 11:12:30;;;;;;;3.10;2.20;;;;;;;38.84;23.96;100896.70;108268;1283;23056;-74
2023/08/13 11:14:59;;;;;;;4.90;2.60;;;;;;;39.04;23.95;100892.54;108210;1270;22045;-74